Time;durP1;ratioP1;P1;durP2;ratioP2;P2;SDS_P1;SDS_P2;PMS_P1;PMS_P2;Temp;Humidity;BMP_temperature;BMP_pressure;BME280_temperature;BME280_humidity;BME280_pressure;Samples;Min_cycle;Max_cycle;Signal;HPM_P1;HPM_P2
2023/04/22 00:01:37;;;;;;;3.27;1.87;;;8.70;99.90;;;;;;5047925;28;20025;-83
2023/04/22 00:04:02;;;;;;;5.83;2.60;;;8.60;99.90;;;;;;5048024;28;20025;-82
2023/04/22 00:06:28;;;;;;;5.33;2.83;;;8.60;99.90;;;;;;5047895;28;20120;-82
2023/04/22 00:08:53;;;;;;;5.57;2.37;;;8.60;99.90;;;;;;5048195;28;20055;-83
2023/04/22 00:11:19;;;;;;;5.40;2.40;;;8.60;99.90;;;;;;5047155;28;20397;-83
2023/04/22 00:13:45;;;;;;;3.87;2.10;;;8.50;99.90;;;;;;5048343;28;20035;-83
2023/04/22 00:16:10;;;;;;;4.13;1.97;;;8.50;99.90;;;;;;5048129;28;20075;-83
2023/04/22 00:18:36;;;;;;;4.67;2.10;;;8.50;99.90;;;;;;5048320;28;20094;-82
2023/04/22 00:21:03;;;;;;;6.43;2.20;;;8.50;99.90;;;;;;5048008;28;20026;-82
2023/04/22 00:23:28;;;;;;;7.23;2.30;;;8.40;99.90;;;;;;5048498;28;20036;-83
2023/04/22 00:25:54;;;;;;;7.90;2.10;;;8.40;99.90;;;;;;5051048;28;20029;-82
2023/04/22 00:28:19;;;;;;;3.00;2.03;;;8.40;99.90;;;;;;5050030;28;20041;-82
2023/04/22 00:30:45;;;;;;;2.93;1.70;;;8.40;99.90;;;;;;5049972;28;20029;-83
2023/04/22 00:33:10;;;;;;;3.37;1.90;;;8.30;99.90;;;;;;5046907;28;20033;-83
2023/04/22 00:35:36;;;;;;;4.80;1.97;;;8.30;99.90;;;;;;5049150;28;20024;-83
2023/04/22 00:38:02;;;;;;;3.70;1.73;;;8.20;99.90;;;;;;5049949;28;20024;-83
2023/04/22 00:40:27;;;;;;;4.93;2.10;;;8.20;99.90;;;;;;5048105;28;20032;-83
2023/04/22 00:42:54;;;;;;;4.63;2.07;;;8.20;99.90;;;;;;5049016;28;20033;-83
2023/04/22 00:45:20;;;;;;;3.17;1.77;;;8.20;99.90;;;;;;5047924;28;20111;-83
2023/04/22 00:47:47;;;;;;;5.67;2.00;;;8.20;99.90;;;;;;5047554;28;20108;-83
2023/04/22 00:50:14;;;;;;;3.10;1.90;;;8.20;99.90;;;;;;5047513;28;20060;-83
2023/04/22 00:52:39;;;;;;;2.97;2.00;;;8.20;99.90;;;;;;5048442;28;20021;-82
2023/04/22 00:55:05;;;;;;;5.40;2.30;;;8.10;99.90;;;;;;5047056;28;20092;-82
2023/04/22 00:57:32;;;;;;;2.43;1.67;;;8.10;99.90;;;;;;5047758;28;20515;-83
2023/04/22 00:59:58;;;;;;;3.63;2.00;;;8.10;99.90;;;;;;5047449;28;20099;-83
2023/04/22 01:02:24;;;;;;;6.00;2.10;;;8.10;99.90;;;;;;5046871;28;20040;-82
2023/04/22 01:04:50;;;;;;;3.30;1.80;;;8.10;99.90;;;;;;5048282;28;20021;-83
2023/04/22 01:07:16;;;;;;;4.00;1.80;;;8.10;99.90;;;;;;5048071;28;20539;-82
2023/04/22 01:09:42;;;;;;;4.13;2.33;;;8.10;99.90;;;;;;5045893;28;20041;-83
2023/04/22 01:12:08;;;;;;;5.00;1.87;;;8.00;99.90;;;;;;5047654;28;20036;-82
2023/04/22 01:14:34;;;;;;;2.80;1.80;;;8.00;99.90;;;;;;5047452;28;20032;-83
2023/04/22 01:16:59;;;;;;;5.53;2.07;;;8.00;99.90;;;;;;5047539;28;20029;-83
2023/04/22 01:19:25;;;;;;;4.37;1.80;;;8.00;99.90;;;;;;5047025;28;20143;-82
2023/04/22 01:21:51;;;;;;;3.30;1.90;;;8.00;99.90;;;;;;5048995;28;20024;-82
2023/04/22 01:24:17;;;;;;;3.73;2.10;;;8.00;99.90;;;;;;5046649;28;21475;-83
2023/04/22 01:26:43;;;;;;;2.90;1.73;;;8.00;99.90;;;;;;5048533;28;20025;-83
2023/04/22 01:29:09;;;;;;;4.27;2.30;;;8.00;99.90;;;;;;5048231;28;20051;-83
2023/04/22 01:31:34;;;;;;;3.23;1.93;;;7.90;99.90;;;;;;5047735;28;20033;-83
2023/04/22 01:34:00;;;;;;;2.80;1.90;;;7.90;99.90;;;;;;5048037;28;20075;-82
2023/04/22 01:36:26;;;;;;;4.80;2.20;;;7.90;99.90;;;;;;5047755;28;20181;-83
2023/04/22 01:38:52;;;;;;;4.17;1.90;;;7.90;99.90;;;;;;5048382;28;20473;-83
2023/04/22 01:41:18;;;;;;;3.90;2.30;;;8.00;99.90;;;;;;5051326;28;20377;-82
2023/04/22 01:43:44;;;;;;;3.43;2.20;;;7.90;99.90;;;;;;5050282;28;20086;-83
2023/04/22 01:46:09;;;;;;;4.53;2.57;;;7.90;99.90;;;;;;5052104;28;20058;-83
2023/04/22 01:48:35;;;;;;;3.43;2.13;;;7.90;99.90;;;;;;5050948;28;20037;-83
2023/04/22 01:51:02;;;;;;;5.30;2.00;;;7.90;99.90;;;;;;5048940;28;20567;-82
2023/04/22 01:53:27;;;;;;;2.87;2.00;;;7.90;99.90;;;;;;5050513;28;20044;-83
2023/04/22 01:55:53;;;;;;;4.70;2.20;;;7.90;99.90;;;;;;5050693;28;20035;-83
2023/04/22 01:58:18;;;;;;;4.17;2.37;;;7.80;99.90;;;;;;5049775;28;20473;-83
2023/04/22 02:00:44;;;;;;;3.60;2.07;;;7.80;99.90;;;;;;5050553;28;20163;-83
2023/04/22 02:03:10;;;;;;;5.83;2.43;;;7.70;99.90;;;;;;5051759;28;20028;-83
2023/04/22 02:05:39;;;;;;;4.57;2.13;;;7.70;99.90;;;;;;5054112;28;20017;-82
2023/04/22 02:08:05;;;;;;;3.67;2.20;;;7.60;99.90;;;;;;5056969;28;20048;-82
2023/04/22 02:10:30;;;;;;;3.00;1.90;;;7.60;99.90;;;;;;5055769;28;20029;-82
2023/04/22 02:12:56;;;;;;;4.50;2.33;;;7.60;99.90;;;;;;5055471;28;20025;-82
2023/04/22 02:15:22;;;;;;;3.17;2.17;;;7.50;99.90;;;;;;5055548;28;20021;-83
2023/04/22 02:17:49;;;;;;;4.33;2.10;;;7.50;99.90;;;;;;5051322;28;20115;-83
2023/04/22 02:20:15;;;;;;;4.03;2.13;;;7.50;99.90;;;;;;5047833;28;20671;-83
2023/04/22 02:22:42;;;;;;;4.10;2.20;;;7.50;99.90;;;;;;5050851;28;20198;-83
2023/04/22 02:25:09;;;;;;;5.83;2.07;;;7.50;99.90;;;;;;5051063;28;20045;-82
2023/04/22 02:27:35;;;;;;;4.70;2.07;;;7.50;99.90;;;;;;5049745;28;20028;-83
2023/04/22 02:30:01;;;;;;;5.40;2.03;;;7.40;99.90;;;;;;5050159;28;20102;-83
2023/04/22 02:32:26;;;;;;;5.10;2.40;;;7.40;99.90;;;;;;5052189;28;20100;-83
2023/04/22 02:34:52;;;;;;;2.97;2.00;;;7.40;99.90;;;;;;5055202;28;20029;-82
2023/04/22 02:37:18;;;;;;;5.67;1.90;;;7.40;99.90;;;;;;5051746;28;20027;-83
2023/04/22 02:39:43;;;;;;;3.03;1.87;;;7.40;99.90;;;;;;5051073;28;20531;-82
2023/04/22 02:42:09;;;;;;;4.57;2.00;;;7.30;99.90;;;;;;5051553;28;20056;-82
2023/04/22 02:44:34;;;;;;;5.90;2.00;;;7.30;99.90;;;;;;5051753;28;20079;-83
2023/04/22 02:47:00;;;;;;;3.20;2.10;;;7.30;99.90;;;;;;5051573;28;20506;-83
2023/04/22 02:49:26;;;;;;;5.67;1.80;;;7.30;99.90;;;;;;5050511;28;20041;-83
2023/04/22 02:51:51;;;;;;;2.40;1.57;;;7.30;99.90;;;;;;5051916;28;20024;-82
2023/04/22 02:54:17;;;;;;;3.80;1.97;;;7.20;99.90;;;;;;5051718;28;20039;-83
2023/04/22 02:56:42;;;;;;;3.37;1.60;;;7.20;99.90;;;;;;5051150;28;20025;-83
2023/04/22 02:59:08;;;;;;;3.20;1.87;;;7.20;99.90;;;;;;5051037;28;20511;-82
2023/04/22 03:01:33;;;;;;;3.47;1.80;;;7.10;99.90;;;;;;5051084;28;20025;-83
2023/04/22 03:03:59;;;;;;;3.70;1.40;;;7.10;99.90;;;;;;5051025;28;20078;-83
2023/04/22 03:06:24;;;;;;;2.63;1.77;;;7.00;99.90;;;;;;5051208;28;20025;-82
2023/04/22 03:08:50;;;;;;;3.83;1.70;;;6.90;99.90;;;;;;5051167;28;20044;-83
2023/04/22 03:11:15;;;;;;;5.23;1.63;;;6.90;99.90;;;;;;5049677;28;20049;-82
2023/04/22 03:13:41;;;;;;;3.17;1.50;;;6.90;99.90;;;;;;5050600;28;20123;-83
2023/04/22 03:16:07;;;;;;;4.60;1.70;;;6.80;99.90;;;;;;5050379;28;20775;-83
2023/04/22 03:18:32;;;;;;;2.73;1.80;;;6.70;99.90;;;;;;5050412;28;20943;-83
2023/04/22 03:20:59;;;;;;;3.50;1.77;;;6.70;99.90;;;;;;5048999;28;20070;-82
2023/04/22 03:23:25;;;;;;;6.07;1.70;;;6.60;99.90;;;;;;5050498;28;20250;-82
2023/04/22 03:25:50;;;;;;;2.53;1.90;;;6.60;99.90;;;;;;5049151;28;20505;-82
2023/04/22 03:28:16;;;;;;;3.03;1.73;;;6.50;99.90;;;;;;5049391;28;20611;-82
2023/04/22 03:30:41;;;;;;;4.33;2.23;;;6.50;99.90;;;;;;5048330;28;20033;-82
2023/04/22 03:33:07;;;;;;;4.00;1.90;;;6.40;99.90;;;;;;5049006;28;20028;-82
2023/04/22 03:35:32;;;;;;;4.60;2.10;;;6.40;99.90;;;;;;5051007;28;20043;-83
2023/04/22 03:37:58;;;;;;;4.37;1.97;;;6.40;99.90;;;;;;5051121;28;20025;-83
2023/04/22 03:40:24;;;;;;;3.03;2.10;;;6.40;99.90;;;;;;5051557;28;20104;-82
2023/04/22 03:42:49;;;;;;;3.53;1.90;;;6.30;99.90;;;;;;5054611;28;20115;-82
2023/04/22 03:45:15;;;;;;;2.70;1.90;;;6.30;99.90;;;;;;5054882;28;20043;-82
2023/04/22 03:47:40;;;;;;;5.97;1.83;;;6.30;99.90;;;;;;5054319;28;20029;-82
2023/04/22 03:50:06;;;;;;;4.00;2.00;;;6.30;99.90;;;;;;5051997;28;20040;-82
2023/04/22 03:52:31;;;;;;;3.33;1.90;;;6.20;99.90;;;;;;5051749;28;20032;-82
2023/04/22 03:54:57;;;;;;;2.40;1.90;;;6.20;99.90;;;;;;5050985;28;20119;-83
2023/04/22 03:57:22;;;;;;;6.73;2.10;;;6.20;99.90;;;;;;5051302;28;20108;-83
2023/04/22 03:59:48;;;;;;;2.23;1.80;;;6.20;99.90;;;;;;5051421;28;20107;-82
2023/04/22 04:02:13;;;;;;;6.83;2.00;;;6.10;99.90;;;;;;5033408;28;20024;-82
2023/04/22 04:04:39;;;;;;;5.10;1.83;;;6.10;99.90;;;;;;5050605;28;20056;-83
2023/04/22 04:07:06;;;;;;;3.63;2.13;;;6.10;99.90;;;;;;5048562;28;20061;-77
2023/04/22 04:09:32;;;;;;;3.27;2.37;;;6.10;99.90;;;;;;5049347;28;20877;-84
2023/04/22 04:11:57;;;;;;;2.90;2.17;;;6.10;99.90;;;;;;5050316;28;20056;-85
2023/04/22 04:14:23;;;;;;;4.00;2.70;;;6.10;99.90;;;;;;5052294;28;20072;-83
2023/04/22 04:16:48;;;;;;;4.20;2.00;;;6.00;99.90;;;;;;5053740;28;20035;-83
2023/04/22 04:19:14;;;;;;;3.13;1.90;;;6.00;99.90;;;;;;5051095;28;20033;-80
2023/04/22 04:21:40;;;;;;;6.30;2.17;;;6.00;99.90;;;;;;5052864;28;20062;-83
2023/04/22 04:24:05;;;;;;;3.10;2.17;;;6.00;99.90;;;;;;5052418;28;20485;-83
2023/04/22 04:26:32;;;;;;;3.37;2.27;;;6.00;99.90;;;;;;5053620;28;20025;-83
2023/04/22 04:29:00;;;;;;;7.23;2.23;;;6.00;99.90;;;;;;5053548;28;20045;-83
2023/04/22 04:31:26;;;;;;;3.90;2.47;;;6.00;99.90;;;;;;5051839;28;20084;-86
2023/04/22 04:33:52;;;;;;;4.97;2.50;;;6.00;99.90;;;;;;5051892;28;20450;-84
2023/04/22 04:36:18;;;;;;;4.33;2.43;;;6.00;99.90;;;;;;5049202;28;20032;-84
2023/04/22 04:38:44;;;;;;;4.90;2.20;;;6.00;99.90;;;;;;5048705;28;20040;-84
2023/04/22 04:41:09;;;;;;;3.80;2.30;;;6.00;99.90;;;;;;5049128;28;20024;-84
2023/04/22 04:43:35;;;;;;;4.80;2.30;;;6.00;99.90;;;;;;5049906;28;20035;-84
2023/04/22 04:46:04;;;;;;;6.67;2.70;;;6.00;99.90;;;;;;5050163;28;20075;-88
2023/04/22 04:48:34;;;;;;;6.13;2.50;;;6.00;99.90;;;;;;5049448;28;20111;-81
2023/04/22 04:51:00;;;;;;;4.00;2.30;;;6.10;99.90;;;;;;5051425;28;20035;-81
2023/04/22 04:53:25;;;;;;;3.83;2.40;;;6.10;99.90;;;;;;5051156;28;20033;-80
2023/04/22 04:55:51;;;;;;;3.30;2.40;;;6.10;99.90;;;;;;5052417;28;20109;-80
2023/04/22 04:58:17;;;;;;;5.27;2.30;;;6.20;99.90;;;;;;5052519;28;20026;-80
2023/04/22 05:00:42;;;;;;;3.83;2.10;;;6.20;99.90;;;;;;5051303;28;20029;-81
2023/04/22 05:03:08;;;;;;;3.70;1.90;;;6.30;99.90;;;;;;5051745;28;20037;-80
2023/04/22 05:05:33;;;;;;;2.87;1.90;;;6.30;99.90;;;;;;5050869;28;20493;-81
2023/04/22 05:07:59;;;;;;;5.40;2.00;;;6.30;99.90;;;;;;5051425;28;20037;-81
2023/04/22 05:10:25;;;;;;;5.97;2.20;;;6.40;99.90;;;;;;5051276;28;20041;-81
2023/04/22 05:12:50;;;;;;;3.80;1.80;;;6.50;99.90;;;;;;5054020;28;20017;-81
2023/04/22 05:15:16;;;;;;;5.87;1.93;;;6.50;99.90;;;;;;5055684;28;21320;-81
2023/04/22 05:17:42;;;;;;;4.67;2.63;;;6.60;99.90;;;;;;5055736;28;20048;-81
2023/04/22 05:20:08;;;;;;;4.53;2.20;;;6.70;99.90;;;;;;5053492;28;20112;-80
2023/04/22 05:22:35;;;;;;;4.33;2.07;;;6.70;99.90;;;;;;5056063;28;20689;-80
2023/04/22 05:25:02;;;;;;;5.17;2.07;;;6.80;99.90;;;;;;5055275;28;20033;-81
2023/04/22 05:27:28;;;;;;;3.60;2.23;;;6.90;99.90;;;;;;5056095;28;20025;-81
2023/04/22 05:29:53;;;;;;;5.70;2.10;;;7.00;99.90;;;;;;5055086;28;20044;-81
2023/04/22 05:32:19;;;;;;;6.90;2.27;;;7.10;99.90;;;;;;5054935;28;20037;-81
2023/04/22 05:34:45;;;;;;;5.43;2.43;;;7.20;99.90;;;;;;5054734;28;20820;-81
2023/04/22 05:37:10;;;;;;;4.93;2.17;;;7.30;99.90;;;;;;5055198;28;20212;-81
2023/04/22 05:39:36;;;;;;;4.47;2.00;;;7.40;99.90;;;;;;5055574;28;20054;-81
2023/04/22 05:42:02;;;;;;;6.90;2.93;;;7.50;99.90;;;;;;5055663;28;20460;-81
2023/04/22 05:44:27;;;;;;;4.97;2.20;;;7.60;99.90;;;;;;5056161;28;20021;-81
2023/04/22 05:46:53;;;;;;;4.70;2.50;;;7.70;99.90;;;;;;5056758;28;20021;-81
2023/04/22 05:49:19;;;;;;;6.83;2.97;;;7.90;99.90;;;;;;5054939;28;20044;-81
2023/04/22 05:51:44;;;;;;;3.00;2.17;;;8.00;99.90;;;;;;5056625;28;20024;-81
2023/04/22 05:54:10;;;;;;;4.07;2.30;;;8.10;99.90;;;;;;5056059;28;20062;-82
2023/04/22 05:56:36;;;;;;;3.37;2.00;;;8.30;99.90;;;;;;5054851;28;20508;-81
2023/04/22 05:59:01;;;;;;;4.23;2.10;;;8.40;99.90;;;;;;5055180;28;20488;-82
2023/04/22 06:01:27;;;;;;;3.00;2.00;;;8.50;99.90;;;;;;5053319;28;20029;-82
2023/04/22 06:03:52;;;;;;;2.47;1.80;;;8.70;99.90;;;;;;5053505;28;20061;-81
2023/04/22 06:06:18;;;;;;;2.57;2.10;;;8.90;99.90;;;;;;5054266;28;20035;-81
2023/04/22 06:08:43;;;;;;;6.63;2.30;;;9.00;99.90;;;;;;5053152;28;20037;-81
2023/04/22 06:11:09;;;;;;;2.73;1.90;;;9.20;99.90;;;;;;5053196;28;20028;-82
2023/04/22 06:13:35;;;;;;;2.23;1.67;;;9.40;99.90;;;;;;5055670;28;20033;-82
2023/04/22 06:16:00;;;;;;;2.90;1.63;;;9.50;99.90;;;;;;5054782;28;21134;-81
2023/04/22 06:18:26;;;;;;;3.70;1.60;;;9.70;99.90;;;;;;5054947;28;20039;-82
2023/04/22 06:20:52;;;;;;;5.70;1.80;;;9.90;99.90;;;;;;5051946;28;20029;-82
2023/04/22 06:23:18;;;;;;;2.47;1.70;;;10.00;99.90;;;;;;5053340;28;20066;-82
2023/04/22 06:25:44;;;;;;;3.07;1.70;;;10.20;99.90;;;;;;5053426;28;20033;-81
2023/04/22 06:28:09;;;;;;;3.67;1.47;;;10.30;99.90;;;;;;5053581;28;20041;-82
2023/04/22 06:30:35;;;;;;;3.57;1.73;;;10.50;99.90;;;;;;5052088;28;20114;-81
2023/04/22 06:33:00;;;;;;;2.10;1.50;;;10.60;99.90;;;;;;5053989;28;20025;-81
2023/04/22 06:35:26;;;;;;;5.20;1.57;;;10.80;99.90;;;;;;5054244;28;20041;-81
2023/04/22 06:37:51;;;;;;;4.83;2.00;;;10.90;99.90;;;;;;5053762;28;20489;-81
2023/04/22 06:40:17;;;;;;;3.05;1.80;;;11.10;99.90;;;;;;5051111;28;20032;-80
2023/04/22 06:42:42;;;;;;;2.85;1.80;;;11.20;99.90;;;;;;5053954;28;20079;-81
2023/04/22 06:45:11;;;;;;;1.88;1.40;;;11.30;99.90;;;;;;5051746;28;20382;-81
2023/04/22 06:47:38;;;;;;;2.20;1.50;;;11.40;99.90;;;;;;5056510;28;20031;-81
2023/04/22 06:50:05;;;;;;;3.13;1.40;;;11.40;99.90;;;;;;5051268;28;20040;-81
2023/04/22 06:52:30;;;;;;;2.90;1.40;;;11.50;99.90;;;;;;5055034;28;20052;-81
2023/04/22 06:54:56;;;;;;;2.17;1.33;;;11.70;99.90;;;;;;5055797;28;20418;-81
2023/04/22 06:57:21;;;;;;;3.70;1.45;;;11.80;99.90;;;;;;5056836;28;20389;-81
2023/04/22 06:59:47;;;;;;;2.00;1.30;;;12.00;99.90;;;;;;5059724;28;20720;-81
2023/04/22 07:02:12;;;;;;;5.88;3.80;;;12.10;99.90;;;;;;5051202;28;20154;-81
2023/04/22 07:04:38;;;;;;;6.18;2.08;;;12.20;99.90;;;;;;5049836;28;20024;-81
2023/04/22 07:07:03;;;;;;;3.08;1.48;;;12.40;99.90;;;;;;5050058;28;21545;-81
2023/04/22 07:09:29;;;;;;;2.72;1.40;;;12.50;99.90;;;;;;5049510;28;20040;-80
2023/04/22 07:11:56;;;;;;;2.92;1.70;;;12.60;99.90;;;;;;5050576;28;20036;-81
2023/04/22 07:14:23;;;;;;;2.42;1.70;;;12.70;99.90;;;;;;5048319;28;20037;-81
2023/04/22 07:16:49;;;;;;;3.92;1.45;;;12.70;99.90;;;;;;5048451;28;20028;-81
2023/04/22 07:19:15;;;;;;;3.00;1.58;;;12.70;99.90;;;;;;5051993;28;20075;-81
2023/04/22 07:21:40;;;;;;;3.13;1.52;;;12.80;99.90;;;;;;5052863;28;20055;-81
2023/04/22 07:24:10;;;;;;;2.67;1.70;;;12.80;99.90;;;;;;5053596;28;20028;-81
2023/04/22 07:26:37;;;;;;;3.30;1.60;;;12.80;99.90;;;;;;5053521;28;20130;-80
2023/04/22 07:29:02;;;;;;;4.80;1.50;;;12.80;99.90;;;;;;5052692;28;20565;-80
2023/04/22 07:31:28;;;;;;;2.25;1.50;;;12.90;99.90;;;;;;5053390;28;20048;-80
2023/04/22 07:33:53;;;;;;;4.47;1.73;;;13.00;99.90;;;;;;5053415;28;20033;-81
2023/04/22 07:36:19;;;;;;;2.38;1.48;;;13.10;99.90;;;;;;5053542;28;20048;-81
2023/04/22 07:38:45;;;;;;;5.95;1.70;;;13.10;99.90;;;;;;5053973;28;20033;-81
2023/04/22 07:41:10;;;;;;;1.90;1.25;;;13.20;99.90;;;;;;5054070;28;20041;-80
2023/04/22 07:43:36;;;;;;;2.53;1.70;;;13.30;99.90;;;;;;5055033;28;20834;-81
2023/04/22 07:46:02;;;;;;;3.38;1.50;;;13.40;99.90;;;;;;5053915;28;20074;-81
2023/04/22 07:48:27;;;;;;;2.97;1.60;;;13.50;99.90;;;;;;5053957;28;20092;-81
2023/04/22 07:50:53;;;;;;;3.03;1.60;;;13.60;99.90;;;;;;5053541;28;20021;-80
2023/04/22 07:53:19;;;;;;;2.25;1.50;;;13.80;99.90;;;;;;5053366;28;20051;-81
2023/04/22 07:55:45;;;;;;;2.40;1.52;;;13.90;99.90;;;;;;5054103;28;20028;-81
2023/04/22 07:58:10;;;;;;;3.75;1.30;;;14.10;99.90;;;;;;5054146;28;20033;-81
2023/04/22 08:00:36;;;;;;;5.88;1.55;;;14.20;99.90;;;;;;5053341;28;20506;-81
2023/04/22 08:03:02;;;;;;;7.72;1.98;;;14.30;99.90;;;;;;5053393;28;20031;-81
2023/04/22 08:05:28;;;;;;;4.95;1.50;;;14.40;99.90;;;;;;5054131;28;20106;-81
2023/04/22 08:07:53;;;;;;;5.50;1.58;;;14.40;99.90;;;;;;5054286;28;20055;-81
2023/04/22 08:10:19;;;;;;;2.83;1.55;;;14.50;99.90;;;;;;5051881;28;21364;-81
2023/04/22 08:12:44;;;;;;;6.28;1.63;;;14.60;99.90;;;;;;5052623;28;20024;-81
2023/04/22 08:15:11;;;;;;;3.00;1.67;;;14.70;99.90;;;;;;5051749;28;20035;-82
2023/04/22 08:17:36;;;;;;;2.90;1.70;;;14.90;99.90;;;;;;5053325;28;20125;-82
2023/04/22 08:20:03;;;;;;;3.50;1.70;;;15.00;99.90;;;;;;5051680;28;20052;-81
2023/04/22 08:22:28;;;;;;;4.00;1.50;;;15.10;99.90;;;;;;5051274;28;20032;-82
2023/04/22 08:24:54;;;;;;;3.47;1.30;;;15.10;99.90;;;;;;5052072;28;20041;-81
2023/04/22 08:27:22;;;;;;;2.40;1.60;;;15.30;99.90;;;;;;5052061;28;20028;-81
2023/04/22 08:29:48;;;;;;;4.97;1.42;;;15.30;99.90;;;;;;5051893;28;20047;-81
2023/04/22 08:32:14;;;;;;;3.25;1.40;;;15.30;99.90;;;;;;5053006;28;20020;-82
2023/04/22 08:34:40;;;;;;;3.38;1.40;;;15.50;99.90;;;;;;5052433;28;21284;-82
2023/04/22 08:37:05;;;;;;;4.45;1.60;;;15.60;99.90;;;;;;5054192;28;20024;-81
2023/04/22 08:39:31;;;;;;;9.38;1.55;;;15.80;99.90;;;;;;5053261;28;20032;-82
2023/04/22 08:41:57;;;;;;;2.90;1.20;;;16.00;99.90;;;;;;5052084;28;21488;-82
2023/04/22 08:44:23;;;;;;;5.75;1.17;;;16.20;99.90;;;;;;5050719;28;20033;-82
2023/04/22 08:46:50;;;;;;;4.35;1.02;;;16.50;99.90;;;;;;5051132;28;20032;-82
2023/04/22 08:49:17;;;;;;;2.53;1.30;;;16.60;99.90;;;;;;5052463;28;20036;-81
2023/04/22 08:51:43;;;;;;;2.25;1.08;;;16.70;99.90;;;;;;5051248;28;20032;-81
2023/04/22 08:54:10;;;;;;;15.77;1.30;;;16.70;99.90;;;;;;5050792;28;20842;-81
2023/04/22 08:56:39;;;;;;;2.25;1.00;;;16.80;99.90;;;;;;5051599;28;20029;-82
2023/04/22 08:59:05;;;;;;;1.00;0.90;;;17.00;99.90;;;;;;5051869;28;20116;-82
2023/04/22 09:01:32;;;;;;;4.05;0.90;;;17.20;99.90;;;;;;5051020;28;20032;-81
2023/04/22 09:03:59;;;;;;;5.30;1.25;;;17.30;99.90;;;;;;5050691;28;20445;-81
2023/04/22 09:06:24;;;;;;;2.05;1.02;;;17.60;99.90;;;;;;5052042;28;20044;-82
2023/04/22 09:08:50;;;;;;;1.63;1.10;;;17.60;99.90;;;;;;5052303;28;20033;-81
2023/04/22 09:11:17;;;;;;;36.55;1.98;;;17.70;99.90;;;;;;5051931;28;20029;-82
2023/04/22 09:13:42;;;;;;;2.78;1.10;;;17.90;99.90;;;;;;5053280;28;20044;-82
2023/04/22 09:16:08;;;;;;;2.50;1.02;;;18.20;99.90;;;;;;5052449;28;20025;-82
2023/04/22 09:18:44;;;;;;;4.30;1.48;;;18.30;99.90;;;;;;5051722;28;20043;-82
2023/04/22 09:21:10;;;;;;;4.03;1.75;;;18.60;99.90;;;;;;5051679;28;20119;-82
2023/04/22 09:23:44;;;;;;;3.33;1.58;;;18.80;99.90;;;;;;5052663;28;20137;-82
2023/04/22 09:26:10;;;;;;;2.38;1.00;;;19.00;99.90;;;;;;5052716;28;20461;-82
2023/04/22 09:28:36;;;;;;;1.98;1.20;;;19.10;99.90;;;;;;5052105;28;20039;-83
2023/04/22 09:31:02;;;;;;;1.60;1.00;;;19.30;99.90;;;;;;5052677;28;20033;-83
2023/04/22 09:33:30;;;;;;;1.90;1.20;;;19.30;99.90;;;;;;5052992;28;20028;-82
2023/04/22 09:35:56;;;;;;;2.90;1.38;;;19.40;99.90;;;;;;5053525;28;20036;-83
2023/04/22 09:38:21;;;;;;;3.17;1.65;;;19.40;99.90;;;;;;5053518;28;20021;-83
2023/04/22 09:40:47;;;;;;;1.95;1.30;;;19.60;99.90;;;;;;5052408;28;21658;-82
2023/04/22 09:43:17;;;;;;;2.42;1.50;;;19.70;99.90;;;;;;5054768;28;20488;-83
2023/04/22 09:45:44;;;;;;;4.30;1.55;;;19.70;99.90;;;;;;5034813;28;20119;-82
2023/04/22 09:48:14;;;;;;;2.90;1.30;;;19.80;99.90;;;;;;5054295;28;20037;-82
2023/04/22 09:50:48;;;;;;;2.22;1.30;;;20.00;99.90;;;;;;5052367;28;20510;-83
2023/04/22 09:53:16;;;;;;;2.08;1.30;;;20.10;99.90;;;;;;5052844;28;20024;-83
2023/04/22 09:55:46;;;;;;;2.45;1.45;;;20.20;99.90;;;;;;5051134;28;20115;-83
2023/04/22 09:58:13;;;;;;;3.33;1.42;;;20.30;99.90;;;;;;5051230;28;20029;-83
2023/04/22 10:00:42;;;;;;;5.78;1.75;;;20.30;99.90;;;;;;5053975;28;20025;-83
2023/04/22 10:03:07;;;;;;;4.22;1.40;;;20.40;99.90;;;;;;5054274;28;20702;-83
2023/04/22 10:05:36;;;;;;;2.55;1.30;;;20.50;99.90;;;;;;5057348;28;20027;-82
2023/04/22 10:08:06;;;;;;;5.22;1.20;;;20.60;99.90;;;;;;5057156;28;20029;-83
2023/04/22 10:10:32;;;;;;;6.53;1.50;;;20.70;99.90;;;;;;5055613;28;20576;-83
2023/04/22 10:12:59;;;;;;;4.63;1.50;;;20.90;99.90;;;;;;5055943;28;20083;-83
2023/04/22 10:15:26;;;;;;;3.00;1.50;;;21.10;99.90;;;;;;5055735;28;20029;-83
2023/04/22 10:17:53;;;;;;;3.80;1.35;;;21.20;99.90;;;;;;5056510;28;20029;-82
2023/04/22 10:20:20;;;;;;;2.85;1.10;;;21.30;99.90;;;;;;5055859;28;20111;-83
2023/04/22 10:22:46;;;;;;;1.88;1.25;;;21.50;99.00;;;;;;5056108;28;20028;-83
2023/04/22 10:25:24;;;;;;;2.22;1.50;;;21.60;99.90;;;;;;5056672;28;20070;-83
2023/04/22 10:28:03;;;;;;;2.60;1.42;;;21.70;98.70;;;;;;5055982;28;20025;-83
2023/04/22 10:30:31;;;;;;;3.38;1.30;;;21.60;98.30;;;;;;5054946;28;20051;-83
2023/04/22 10:33:19;;;;;;;3.22;1.20;;;21.80;99.50;;;;;;5053758;28;20746;-83
2023/04/22 10:36:06;;;;;;;3.22;1.40;;;21.90;98.60;;;;;;5053237;28;20045;-82
2023/04/22 10:38:41;;;;;;;2.75;1.40;;;22.10;99.60;;;;;;5053754;28;20024;-83
2023/04/22 10:41:12;;;;;;;;;;;22.10;99.10;;;;;;5052271;28;20159;-84
2023/04/22 10:43:47;;;;;;;4.65;1.38;;;22.10;96.50;;;;;;5051876;28;20065;-83
2023/04/22 10:46:31;;;;;;;2.95;1.33;;;22.00;98.00;;;;;;5053934;28;20035;-83
2023/04/22 10:48:58;;;;;;;1.30;1.20;;;22.00;96.00;;;;;;5054579;28;20113;-83
2023/04/22 10:51:43;;;;;;;1.63;1.20;;;21.90;95.50;;;;;;5050823;28;20020;-84
2023/04/22 10:54:24;;;;;;;;;;;22.00;97.70;;;;;;5050722;28;20028;-83
2023/04/22 10:57:05;;;;;;;1.63;1.20;;;22.00;97.40;;;;;;5050240;28;19913;-84
2023/04/22 10:59:33;;;;;;;2.08;1.33;;;22.30;95.10;;;;;;5047865;28;20103;-83
2023/04/22 11:02:06;;;;;;;2.90;1.38;;;22.30;95.50;;;;;;5050126;28;20028;-83
2023/04/22 11:04:32;;;;;;;3.85;1.40;;;22.30;95.30;;;;;;5054010;28;20047;-83
2023/04/22 11:07:21;;;;;;;2.25;1.10;;;22.40;96.10;;;;;;5052928;28;20476;-83
2023/04/22 11:09:50;;;;;;;2.47;1.30;;;22.40;95.30;;;;;;5052048;28;20091;-83
2023/04/22 11:12:37;;;;;;;3.97;1.25;;;22.80;93.20;;;;;;5052307;28;20029;-83
2023/04/22 11:15:09;;;;;;;1.65;0.98;;;22.90;93.70;;;;;;5049610;28;20520;-85
2023/04/22 11:17:36;;;;;;;5.70;1.30;;;23.00;92.40;;;;;;5048440;28;20047;-85
2023/04/22 11:20:04;;;;;;;2.65;1.30;;;23.00;92.50;;;;;;5048819;28;20029;-82
2023/04/22 11:22:34;;;;;;;1.65;1.08;;;23.20;95.20;;;;;;5054380;28;20039;-82
2023/04/22 11:25:00;;;;;;;1.67;1.10;;;23.50;92.80;;;;;;5055279;28;20028;-82
2023/04/22 11:27:26;;;;;;;2.72;1.23;;;23.70;92.40;;;;;;5055422;28;20028;-82
2023/04/22 11:30:12;;;;;;;1.95;1.10;;;23.80;91.40;;;;;;5053313;28;20178;-82
2023/04/22 11:32:50;;;;;;;2.55;1.30;;;23.60;90.60;;;;;;5054624;28;20032;-82
2023/04/22 11:35:20;;;;;;;1.98;1.13;;;23.40;91.30;;;;;;5054605;28;20021;-82
2023/04/22 11:37:53;;;;;;;2.63;1.10;;;23.20;90.00;;;;;;5055023;28;20538;-82
2023/04/22 11:40:31;;;;;;;5.78;1.20;;;23.00;90.50;;;;;;5054064;28;21185;-82
2023/04/22 11:42:59;;;;;;;1.98;1.42;;;22.80;88.00;;;;;;5051698;28;20032;-82
2023/04/22 11:45:25;;;;;;;1.80;1.10;;;22.70;90.90;;;;;;5052408;28;20033;-82
2023/04/22 11:47:51;;;;;;;3.13;1.00;;;22.80;90.70;;;;;;5052555;28;20029;-82
2023/04/22 11:50:21;;;;;;;1.85;1.10;;;22.90;91.40;;;;;;5050481;28;20032;-82
2023/04/22 11:52:53;;;;;;;1.63;1.10;;;23.00;91.40;;;;;;5051474;28;20047;-82
2023/04/22 11:55:26;;;;;;;2.92;1.10;;;23.00;89.20;;;;;;5052272;28;20033;-82
2023/04/22 11:57:57;;;;;;;2.33;1.15;;;23.00;90.60;;;;;;5052093;28;20051;-82
2023/04/22 12:00:29;;;;;;;2.03;1.23;;;23.00;88.50;;;;;;5051326;28;20082;-82
2023/04/22 12:03:03;;;;;;;1.70;1.05;;;23.00;89.10;;;;;;5051798;28;20029;-82
2023/04/22 12:05:50;;;;;;;2.72;1.10;;;23.00;87.70;;;;;;5052001;28;20040;-83
2023/04/22 12:08:18;;;;;;;1.63;1.20;;;23.10;89.40;;;;;;5051716;28;20119;-82
2023/04/22 12:10:53;;;;;;;1.80;1.10;;;23.10;86.30;;;;;;5050956;28;20505;-82
2023/04/22 12:13:19;;;;;;;3.08;1.33;;;23.40;85.20;;;;;;5051239;28;20139;-82
2023/04/22 12:15:44;;;;;;;3.38;1.52;;;23.50;85.60;;;;;;5051616;28;20119;-82
2023/04/22 12:18:11;;;;;;;1.38;1.00;;;23.80;84.20;;;;;;5052539;28;20036;-82
2023/04/22 12:20:38;;;;;;;2.85;1.17;;;23.90;84.90;;;;;;5051128;28;20099;-82
2023/04/22 12:23:04;;;;;;;1.20;1.00;;;23.90;86.00;;;;;;5052413;28;20041;-82
2023/04/22 12:25:32;;;;;;;3.78;1.60;;;24.10;82.40;;;;;;5052400;28;20155;-82
2023/04/22 12:27:58;;;;;;;1.85;1.17;;;23.80;83.40;;;;;;5051164;28;20058;-82
2023/04/22 12:30:24;;;;;;;1.33;1.00;;;23.70;83.60;;;;;;5052186;28;20049;-82
2023/04/22 12:32:50;;;;;;;1.60;1.05;;;23.60;82.30;;;;;;5053532;28;20037;-82
2023/04/22 12:35:16;;;;;;;2.72;1.38;;;23.50;85.40;;;;;;5052684;28;20028;-82
2023/04/22 12:37:42;;;;;;;2.80;1.10;;;23.50;86.60;;;;;;5053409;28;20044;-82
2023/04/22 12:40:09;;;;;;;1.63;1.10;;;23.70;82.10;;;;;;5052480;28;20055;-82
2023/04/22 12:42:35;;;;;;;2.38;1.15;;;23.80;79.80;;;;;;5052814;28;20040;-82
2023/04/22 12:45:01;;;;;;;1.52;1.00;;;23.90;79.40;;;;;;5052245;28;20119;-82
2023/04/22 12:47:27;;;;;;;3.55;1.30;;;24.00;81.30;;;;;;5053075;28;20147;-82
2023/04/22 12:49:52;;;;;;;3.58;1.20;;;23.90;78.30;;;;;;5052115;28;20126;-82
2023/04/22 12:52:18;;;;;;;3.25;1.25;;;23.90;83.60;;;;;;5053417;28;21336;-82